createdAt,value
2022-08-23T00:02:27.227Z,46.58
2022-08-23T00:05:07.501Z,47.09
2022-08-23T00:07:41.663Z,46.10
2022-08-23T00:10:15.595Z,45.10
2022-08-23T00:12:43.222Z,46.15
2022-08-23T00:15:12.790Z,46.22
2022-08-23T00:17:39.690Z,45.68
2022-08-23T00:20:08.967Z,45.35
2022-08-23T00:22:36.845Z,45.54
2022-08-23T00:25:06.274Z,46.39
2022-08-23T00:27:33.499Z,45.86
2022-08-23T00:30:00.570Z,46.01
2022-08-23T00:32:30.435Z,45.89
2022-08-23T00:34:58.968Z,46.70
2022-08-23T00:37:25.880Z,46.29
2022-08-23T00:39:52.711Z,46.13
2022-08-23T00:42:56.742Z,48.48
2022-08-23T00:45:49.543Z,48.37
2022-08-23T00:48:16.559Z,49.52
2022-08-23T00:50:57.843Z,49.35
2022-08-23T00:53:28.866Z,49.00
2022-08-23T00:56:00.076Z,48.53
2022-08-23T00:58:27.230Z,48.05
2022-08-23T01:00:57.043Z,48.33
2022-08-23T01:03:26.808Z,48.38
2022-08-23T01:06:03.601Z,48.14
2022-08-23T01:08:33.363Z,48.37
2022-08-23T01:11:20.374Z,47.95
2022-08-23T01:13:58.247Z,50.13
2022-08-23T01:16:33.721Z,50.97
2022-08-23T01:19:02.976Z,49.25
2022-08-23T01:21:41.365Z,49.19
2022-08-23T01:24:10.393Z,48.39
2022-08-23T01:26:48.046Z,48.18
2022-08-23T01:29:16.900Z,47.62
2022-08-23T01:31:44.181Z,48.54
2022-08-23T01:34:14.367Z,48.76
2022-08-23T01:36:43.431Z,49.10
2022-08-23T01:39:10.508Z,48.06
2022-08-23T01:41:40.562Z,48.28
2022-08-23T01:44:09.126Z,49.07
2022-08-23T01:46:36.990Z,48.64
2022-08-23T01:49:08.265Z,49.06
2022-08-23T01:51:36.084Z,50.05
2022-08-23T01:54:02.864Z,50.53
2022-08-23T01:56:39.019Z,50.84
2022-08-23T01:59:10.452Z,50.54
2022-08-23T02:01:42.874Z,50.76
2022-08-23T02:04:09.633Z,50.02
2022-08-23T02:06:37.692Z,50.34
2022-08-23T02:09:17.409Z,50.55
2022-08-23T02:11:46.479Z,48.75
2022-08-23T02:14:18.835Z,49.49
2022-08-23T02:17:03.084Z,50.30
2022-08-23T02:19:33.633Z,50.37
2022-08-23T02:22:01.894Z,49.86
2022-08-23T02:24:31.039Z,49.25
2022-08-23T02:27:02.150Z,49.29
2022-08-23T02:29:30.386Z,49.70
2022-08-23T02:32:00.132Z,49.62
2022-08-23T02:34:28.772Z,48.61
2022-08-23T02:36:55.624Z,48.63
2022-08-23T02:39:23.955Z,49.06
2022-08-23T02:41:51.955Z,48.68
2022-08-23T02:44:20.133Z,48.56
2022-08-23T02:46:47.494Z,49.57
2022-08-23T02:49:15.679Z,49.29
2022-08-23T02:51:42.763Z,50.00
2022-08-23T02:54:09.752Z,49.36
2022-08-23T02:56:36.724Z,48.18
2022-08-23T02:59:05.460Z,47.95
2022-08-23T03:01:39.276Z,48.22
2022-08-23T03:04:20.703Z,49.26
2022-08-23T03:06:47.674Z,48.90
2022-08-23T03:09:14.401Z,49.98
2022-08-23T03:11:47.698Z,50.18
2022-08-23T03:14:14.646Z,50.55
2022-08-23T03:16:42.105Z,50.49
2022-08-23T03:19:09.499Z,50.85
2022-08-23T03:21:36.325Z,51.06
2022-08-23T03:24:08.059Z,50.68
2022-08-23T03:26:38.143Z,49.81
2022-08-23T03:29:04.996Z,50.05
2022-08-23T03:31:39.416Z,50.43
2022-08-23T03:34:10.348Z,51.32
2022-08-23T03:36:37.489Z,51.92
2022-08-23T03:39:06.493Z,51.06
2022-08-23T03:41:33.900Z,50.96
2022-08-23T03:44:00.456Z,51.03
2022-08-23T03:46:33.894Z,50.97
2022-08-23T03:49:05.229Z,51.31
2022-08-23T03:51:43.761Z,50.04
2022-08-23T03:54:13.914Z,51.42
2022-08-23T03:56:54.057Z,52.42
2022-08-23T03:59:22.023Z,52.47
2022-08-23T04:01:51.503Z,52.32
2022-08-23T04:04:18.363Z,52.11
2022-08-23T04:07:03.437Z,52.08
2022-08-23T04:09:30.262Z,51.72
2022-08-23T04:11:57.879Z,51.27
2022-08-23T04:14:24.865Z,50.69
2022-08-23T04:16:52.461Z,51.55
2022-08-23T04:19:21.314Z,50.15
2022-08-23T04:22:00.908Z,50.41
2022-08-23T04:24:34.599Z,50.04
2022-08-23T04:27:01.392Z,50.40
2022-08-23T04:29:33.977Z,50.78
2022-08-23T04:32:05.651Z,49.97
2022-08-23T04:34:36.493Z,49.46
2022-08-23T04:37:03.119Z,49.76
2022-08-23T04:39:30.168Z,49.66
2022-08-23T04:42:16.364Z,50.15
2022-08-23T04:44:44.144Z,50.38
2022-08-23T04:47:10.810Z,50.57
2022-08-23T04:49:37.554Z,50.95
2022-08-23T04:52:04.274Z,50.52
2022-08-23T04:54:31.668Z,50.14
2022-08-23T04:57:16.057Z,49.51
2022-08-23T04:59:44.510Z,50.37
2022-08-23T05:02:11.286Z,50.42
2022-08-23T05:04:38.175Z,50.49
2022-08-23T05:07:04.870Z,50.79
2022-08-23T05:09:31.566Z,51.32
2022-08-23T05:11:58.552Z,52.27
2022-08-23T05:14:25.614Z,52.36
2022-08-23T05:16:52.523Z,52.37
2022-08-23T05:19:20.874Z,51.53
2022-08-23T05:21:47.640Z,53.03
2022-08-23T05:24:14.961Z,52.96
2022-08-23T05:26:43.887Z,52.58
2022-08-23T05:29:11.146Z,50.55
2022-08-23T05:31:43.699Z,49.78
2022-08-23T05:34:15.445Z,50.82
2022-08-23T05:36:55.235Z,50.42
2022-08-23T05:39:32.923Z,51.38
2022-08-23T05:42:06.715Z,50.23
2022-08-23T05:44:36.435Z,50.33
2022-08-23T05:47:11.483Z,50.35
2022-08-23T05:50:05.870Z,50.14
2022-08-23T05:52:36.167Z,49.82
2022-08-23T05:55:03.347Z,50.30
2022-08-23T05:57:49.174Z,50.26
2022-08-23T06:00:15.961Z,50.68
2022-08-23T06:02:59.215Z,50.24
2022-08-23T06:05:26.330Z,51.11
2022-08-23T06:07:55.012Z,49.76
2022-08-23T06:10:23.622Z,51.02
2022-08-23T06:12:57.207Z,50.62
2022-08-23T06:15:23.974Z,51.12
2022-08-23T06:17:51.166Z,51.64
2022-08-23T06:20:17.935Z,52.04
2022-08-23T06:23:07.363Z,51.42
2022-08-23T06:25:40.504Z,50.30
2022-08-23T06:28:12.082Z,52.24
2022-08-23T06:30:42.183Z,48.69
2022-08-23T06:33:27.320Z,49.10
2022-08-23T06:36:06.198Z,48.70
2022-08-23T06:38:59.333Z,49.15
2022-08-23T06:41:50.302Z,49.20
2022-08-23T06:44:29.898Z,46.71
2022-08-23T06:47:10.828Z,44.14
2022-08-23T06:49:37.627Z,45.08
2022-08-23T06:52:04.335Z,46.40
2022-08-23T06:54:44.256Z,45.92
2022-08-23T06:57:32.463Z,46.55
2022-08-23T07:00:22.050Z,47.71
2022-08-23T07:03:21.630Z,45.89
2022-08-23T07:06:07.856Z,45.16
2022-08-23T07:08:37.081Z,45.48
2022-08-23T07:11:04.718Z,46.49
2022-08-23T07:13:31.341Z,44.79
2022-08-23T07:15:59.404Z,43.65
2022-08-23T07:18:26.961Z,43.61
2022-08-23T07:21:02.972Z,43.00
2022-08-23T07:23:34.727Z,44.63
2022-08-23T07:26:09.161Z,41.97
2022-08-23T07:28:36.705Z,43.93
2022-08-23T07:31:22.921Z,44.60
2022-08-23T07:33:51.006Z,44.86
2022-08-23T07:36:22.462Z,42.70
2022-08-23T07:38:51.659Z,41.87
2022-08-23T07:41:20.689Z,40.96
2022-08-23T07:43:48.369Z,42.29
2022-08-23T07:46:14.985Z,42.27
2022-08-23T07:48:54.022Z,42.06
2022-08-23T07:51:29.937Z,41.18
2022-08-23T07:53:57.034Z,40.52
2022-08-23T07:56:24.302Z,41.76
2022-08-23T07:59:06.317Z,41.55
2022-08-23T08:01:55.201Z,41.84
2022-08-23T08:04:23.924Z,42.01
2022-08-23T08:07:10.401Z,41.53
2022-08-23T08:09:42.440Z,40.99
2022-08-23T08:12:11.807Z,40.35
2022-08-23T08:14:42.275Z,40.43
2022-08-23T08:17:10.518Z,41.61
2022-08-23T08:19:55.462Z,40.10
2022-08-23T08:22:48.551Z,42.13
2022-08-23T08:25:18.539Z,41.01
2022-08-23T08:27:46.126Z,40.98
2022-08-23T08:30:13.188Z,42.13
2022-08-23T08:32:47.067Z,42.60
2022-08-23T08:35:15.323Z,41.07
2022-08-23T08:37:42.274Z,43.04
2022-08-23T08:40:09.422Z,42.28
2022-08-23T08:43:05.701Z,41.04
2022-08-23T08:45:58.605Z,41.33
2022-08-23T08:48:28.210Z,40.62
2022-08-23T08:51:00.742Z,40.83
2022-08-23T08:53:40.052Z,41.13
2022-08-23T08:56:24.862Z,38.20
2022-08-23T08:59:29.063Z,38.46
2022-08-23T09:01:58.346Z,38.54
2022-08-23T09:04:32.592Z,38.86
2022-08-23T09:07:54.603Z,37.73
2022-08-23T09:10:37.074Z,38.03
2022-08-23T09:13:11.448Z,40.82
2022-08-23T09:15:52.826Z,38.85
2022-08-23T09:18:19.573Z,37.27
2022-08-23T09:20:52.009Z,34.89
2022-08-23T09:23:27.362Z,36.06
2022-08-23T09:26:03.715Z,37.48
2022-08-23T09:28:36.971Z,38.22
2022-08-23T09:31:08.283Z,37.95
2022-08-23T09:33:44.030Z,36.57
2022-08-23T09:36:28.740Z,37.44
2022-08-23T09:39:02.868Z,38.69
2022-08-23T09:41:36.703Z,39.12
2022-08-23T09:44:07.548Z,34.68
2022-08-23T09:46:41.767Z,36.54
2022-08-23T09:49:30.225Z,38.56
2022-08-23T09:52:34.930Z,38.71
2022-08-23T09:55:09.783Z,36.20
2022-08-23T09:57:47.982Z,35.56
2022-08-23T10:00:17.500Z,39.66
2022-08-23T10:02:49.454Z,39.25
2022-08-23T10:05:38.574Z,35.79
2022-08-23T10:08:10.873Z,39.54
2022-08-23T10:10:49.732Z,33.56
2022-08-23T10:13:21.845Z,36.84
2022-08-23T10:15:52.303Z,34.85
2022-08-23T10:18:48.767Z,34.71
2022-08-23T10:21:28.694Z,36.46
2022-08-23T10:24:22.691Z,33.31
2022-08-23T10:27:27.524Z,34.05
2022-08-23T10:30:07.429Z,35.83
2022-08-23T10:32:53.343Z,38.31
2022-08-23T10:35:31.403Z,37.58
2022-08-23T10:38:26.945Z,36.11
2022-08-23T10:41:11.544Z,37.31
2022-08-23T10:43:59.861Z,36.39
2022-08-23T10:46:30.017Z,36.19
2022-08-23T10:49:01.844Z,35.69
2022-08-23T10:51:40.379Z,37.49
2022-08-23T10:54:13.245Z,33.61
2022-08-23T10:56:48.645Z,33.76
2022-08-23T10:59:25.428Z,34.67
2022-08-23T11:02:22.011Z,31.47
2022-08-23T11:05:27.501Z,33.87
2022-08-23T11:08:04.471Z,33.63
2022-08-23T11:10:41.753Z,36.72
2022-08-23T11:13:29.363Z,34.85
2022-08-23T11:15:59.237Z,32.90
2022-08-23T11:18:33.114Z,33.29
2022-08-23T11:21:23.241Z,33.00
2022-08-23T11:23:59.444Z,33.97
2022-08-23T11:26:29.486Z,33.85
2022-08-23T11:29:10.747Z,33.77
2022-08-23T11:31:48.922Z,32.53
2022-08-23T11:34:48.171Z,32.12
2022-08-23T11:37:22.040Z,31.78
2022-08-23T11:39:59.778Z,32.23
2022-08-23T11:42:37.873Z,32.42
2022-08-23T11:45:37.506Z,31.49
2022-08-23T11:48:12.102Z,32.73
2022-08-23T11:50:57.537Z,32.10
2022-08-23T11:53:30.779Z,32.09
2022-08-23T11:56:15.898Z,29.73
2022-08-23T11:58:56.010Z,31.69
2022-08-23T12:01:34.192Z,29.50
2022-08-23T12:04:26.384Z,28.51
2022-08-23T12:07:01.595Z,29.22
2022-08-23T12:09:28.147Z,29.79
2022-08-23T12:11:57.791Z,29.72
2022-08-23T12:14:42.710Z,27.02
2022-08-23T12:17:12.129Z,29.12
2022-08-23T12:19:53.841Z,29.22
2022-08-23T12:22:25.174Z,28.39
2022-08-23T12:25:08.392Z,27.22
2022-08-23T12:27:38.022Z,27.24
2022-08-23T12:30:10.896Z,27.24
2022-08-23T12:32:54.233Z,30.33
2022-08-23T12:35:32.970Z,27.13
2022-08-23T12:38:19.692Z,28.32
2022-08-23T12:40:51.600Z,29.43
2022-08-23T12:43:27.961Z,28.89
2022-08-23T12:46:02.777Z,30.38
2022-08-23T12:48:33.832Z,24.77
2022-08-23T12:51:10.621Z,28.40
2022-08-23T12:53:45.244Z,29.94
2022-08-23T12:56:31.471Z,30.52
2022-08-23T12:59:04.931Z,27.40
2022-08-23T13:01:35.832Z,28.02
2022-08-23T13:04:12.775Z,27.42
2022-08-23T13:06:45.623Z,27.34
2022-08-23T13:09:14.680Z,27.16
2022-08-23T13:11:43.400Z,28.02
2022-08-23T13:14:31.476Z,29.46
2022-08-23T13:17:31.616Z,28.32
2022-08-23T13:20:01.212Z,30.55
2022-08-23T13:22:29.943Z,31.72
2022-08-23T13:25:29.107Z,30.85
2022-08-23T13:28:00.008Z,30.31
2022-08-23T13:30:36.303Z,29.62
2022-08-23T13:33:07.812Z,31.22
2022-08-23T13:35:36.690Z,32.43
2022-08-23T13:38:21.390Z,32.15
2022-08-23T13:41:00.597Z,32.00
2022-08-23T13:43:31.089Z,31.83
2022-08-23T13:46:01.032Z,32.40
2022-08-23T13:48:33.731Z,30.81
2022-08-23T13:51:26.771Z,33.26
2022-08-23T13:53:55.606Z,32.13
2022-08-23T13:56:23.302Z,31.90
2022-08-23T13:59:00.249Z,31.95
2022-08-23T14:01:27.600Z,32.03
2022-08-23T14:03:54.221Z,31.41
2022-08-23T14:06:20.902Z,31.65
2022-08-23T14:08:48.309Z,31.56
2022-08-23T14:11:16.081Z,32.47
2022-08-23T14:13:48.638Z,32.26
2022-08-23T14:16:40.711Z,32.25
2022-08-23T14:19:54.772Z,31.68
2022-08-23T14:21:57.018Z,31.31
2022-08-23T14:24:23.832Z,32.27
2022-08-23T14:26:52.430Z,32.35
2022-08-23T14:29:24.165Z,31.67
2022-08-23T14:31:52.197Z,31.40
2022-08-23T14:34:19.198Z,31.74
2022-08-23T14:39:32.736Z,31.63
2022-08-23T14:41:59.316Z,31.37
2022-08-23T14:44:30.164Z,32.30
2022-08-23T14:46:59.429Z,32.24
2022-08-23T14:49:26.086Z,31.85
2022-08-23T14:51:52.831Z,31.23
2022-08-23T14:54:23.136Z,33.09
2022-08-23T14:56:50.333Z,31.73
2022-08-23T14:59:16.907Z,32.41
2022-08-23T15:01:45.089Z,30.31
2022-08-23T15:04:16.934Z,31.19
2022-08-23T15:07:06.846Z,31.77
2022-08-23T15:09:32.037Z,31.08
2022-08-23T15:14:46.475Z,30.98
2022-08-23T15:17:13.665Z,30.90
2022-08-23T15:19:40.695Z,29.61
2022-08-23T15:22:18.748Z,30.77
2022-08-23T15:24:49.196Z,29.16
2022-08-23T15:27:16.566Z,29.71
2022-08-23T15:29:43.184Z,30.77
2022-08-23T15:32:11.018Z,30.77
2022-08-23T15:34:41.062Z,28.10
2022-08-23T15:37:13.325Z,31.22
2022-08-23T15:39:41.559Z,31.18
2022-08-23T15:42:08.322Z,31.08
2022-08-23T15:44:34.898Z,30.74
2022-08-23T15:47:03.035Z,30.95
2022-08-23T15:49:36.246Z,30.00
2022-08-23T15:52:04.584Z,29.94
2022-08-23T15:54:31.644Z,31.01
2022-08-23T15:56:58.291Z,29.97
2022-08-23T15:59:25.220Z,29.57
2022-08-23T16:01:52.035Z,29.52
2022-08-23T16:04:18.606Z,29.78
2022-08-23T16:06:45.533Z,29.68
2022-08-23T16:09:19.013Z,29.64
2022-08-23T16:11:45.725Z,30.66
2022-08-23T16:14:12.522Z,30.54
2022-08-23T16:16:40.513Z,30.30
2022-08-23T16:19:08.124Z,30.52
2022-08-23T16:21:37.505Z,30.41
2022-08-23T16:24:05.483Z,30.74
2022-08-23T16:26:37.581Z,30.98
2022-08-23T16:29:08.335Z,30.82
2022-08-23T16:31:39.157Z,30.70
2022-08-23T16:34:09.627Z,31.06
2022-08-23T16:36:39.921Z,30.43
2022-08-23T16:39:07.510Z,30.79
2022-08-23T16:41:34.436Z,30.04
2022-08-23T16:44:01.087Z,31.62
2022-08-23T16:46:29.156Z,31.22
2022-08-23T16:48:55.892Z,31.00
2022-08-23T16:51:23.335Z,31.67
2022-08-23T16:54:01.547Z,31.05
2022-08-23T16:56:34.122Z,31.49
2022-08-23T16:59:01.876Z,31.86
2022-08-23T17:01:29.667Z,31.81
2022-08-23T17:03:56.380Z,32.01
2022-08-23T17:06:23.112Z,31.70
2022-08-23T17:08:49.946Z,31.66
2022-08-23T17:11:19.373Z,32.94
2022-08-23T17:13:46.124Z,33.63
2022-08-23T17:16:12.970Z,33.41
2022-08-23T17:18:39.849Z,34.58
2022-08-23T17:21:07.515Z,34.82
2022-08-23T17:23:37.742Z,35.24
2022-08-23T17:26:08.419Z,35.96
2022-08-23T17:28:35.701Z,36.23
2022-08-23T17:31:02.618Z,36.60
2022-08-23T17:33:29.879Z,36.73
2022-08-23T17:35:56.881Z,37.23
2022-08-23T17:38:23.481Z,38.48
2022-08-23T17:40:50.397Z,39.18
2022-08-23T17:43:17.007Z,39.07
2022-08-23T17:45:46.654Z,39.48
2022-08-23T17:48:15.448Z,39.68
2022-08-23T17:50:43.793Z,40.07
2022-08-23T17:53:11.596Z,40.78
2022-08-23T17:55:39.607Z,40.52
2022-08-23T17:58:08.586Z,41.17
2022-08-23T18:00:38.210Z,41.74
2022-08-23T18:03:05.348Z,41.91
2022-08-23T18:05:33.366Z,41.48
2022-08-23T18:08:00.559Z,41.48
2022-08-23T18:10:29.765Z,41.43
2022-08-23T18:12:57.230Z,42.21
2022-08-23T18:15:24.157Z,42.07
2022-08-23T18:17:51.734Z,41.94
2022-08-23T18:20:23.268Z,42.11
2022-08-23T18:22:49.790Z,41.97
2022-08-23T18:25:46.213Z,41.77
2022-08-23T18:28:14.554Z,41.99
2022-08-23T18:30:49.544Z,42.05
2022-08-23T18:33:16.926Z,42.67
2022-08-23T18:35:45.192Z,42.92
2022-08-23T18:38:12.913Z,42.59
2022-08-23T18:40:47.808Z,43.26
2022-08-23T18:43:17.289Z,43.00
2022-08-23T18:45:45.571Z,43.38
2022-08-23T18:48:12.355Z,42.95
2022-08-23T18:50:40.519Z,43.10
2022-08-23T18:53:07.872Z,43.50
2022-08-23T18:55:35.581Z,43.79
2022-08-23T18:58:03.047Z,43.63
2022-08-23T19:00:31.388Z,43.50
2022-08-23T19:02:59.270Z,43.59
2022-08-23T19:05:25.986Z,44.13
2022-08-23T19:07:52.534Z,44.17
2022-08-23T19:10:20.604Z,44.17
2022-08-23T19:12:51.829Z,44.36
2022-08-23T19:15:29.520Z,44.22
2022-08-23T19:17:58.066Z,43.62
2022-08-23T19:20:25.602Z,44.36
2022-08-23T19:22:53.748Z,43.59
2022-08-23T19:25:21.191Z,44.24
2022-08-23T19:27:47.792Z,43.68
2022-08-23T19:30:17.365Z,43.88
2022-08-23T19:32:45.142Z,44.26
2022-08-23T19:35:12.928Z,45.28
2022-08-23T19:37:39.542Z,45.35
2022-08-23T19:40:07.049Z,45.30
2022-08-23T19:42:36.949Z,45.08
2022-08-23T19:45:07.262Z,45.82
2022-08-23T19:47:34.834Z,45.47
2022-08-23T19:50:04.042Z,45.89
2022-08-23T19:52:31.805Z,45.65
2022-08-23T19:55:05.130Z,45.44
2022-08-23T19:57:33.082Z,46.19
2022-08-23T20:00:01.087Z,45.59
2022-08-23T20:02:28.514Z,45.71
2022-08-23T20:04:55.761Z,46.08
2022-08-23T20:07:22.494Z,46.42
2022-08-23T20:09:49.170Z,45.65
2022-08-23T20:12:17.610Z,45.91
2022-08-23T20:14:45.019Z,46.40
2022-08-23T20:17:12.068Z,46.97
2022-08-23T20:19:38.814Z,46.99
2022-08-23T20:22:25.752Z,46.99
2022-08-23T20:24:53.216Z,47.13
2022-08-23T20:27:25.326Z,46.48
2022-08-23T20:29:58.948Z,46.83
2022-08-23T20:32:26.293Z,47.18
2022-08-23T20:34:53.190Z,47.75
2022-08-23T20:37:19.770Z,47.79
2022-08-23T20:39:46.469Z,47.69
2022-08-23T20:42:13.106Z,47.68
2022-08-23T20:44:39.811Z,48.01
2022-08-23T20:47:06.644Z,47.45
2022-08-23T20:49:33.374Z,47.86
2022-08-23T20:52:00.080Z,48.33
2022-08-23T20:54:27.314Z,48.11
2022-08-23T20:56:53.949Z,48.03
2022-08-23T20:59:20.876Z,47.96
2022-08-23T21:01:48.516Z,48.88
2022-08-23T21:04:15.252Z,49.31
2022-08-23T21:06:45.913Z,49.02
2022-08-23T21:09:17.094Z,49.18
2022-08-23T21:11:44.020Z,48.65
2022-08-23T21:14:11.036Z,48.54
2022-08-23T21:16:38.398Z,48.80
2022-08-23T21:19:05.683Z,48.97
2022-08-23T21:21:32.470Z,48.69
2022-08-23T21:23:59.224Z,49.27
2022-08-23T21:26:26.058Z,49.28
2022-08-23T21:28:53.195Z,49.93
2022-08-23T21:31:25.066Z,50.06
2022-08-23T21:33:53.122Z,50.08
2022-08-23T21:36:21.406Z,49.28
2022-08-23T21:38:49.080Z,49.24
2022-08-23T21:41:35.562Z,49.37
2022-08-23T21:44:03.993Z,49.40
2022-08-23T21:46:30.713Z,49.19
2022-08-23T21:48:57.947Z,50.38
2022-08-23T21:51:24.734Z,50.65
2022-08-23T21:53:51.725Z,50.06
2022-08-23T21:56:19.588Z,50.52
2022-08-23T21:58:46.728Z,50.72
2022-08-23T22:01:18.611Z,50.55
2022-08-23T22:03:45.569Z,50.54
2022-08-23T22:06:16.766Z,50.60
2022-08-23T22:08:44.636Z,51.26
2022-08-23T22:11:12.482Z,51.75
2022-08-23T22:13:40.060Z,51.84
2022-08-23T22:16:07.013Z,51.81
2022-08-23T22:18:34.519Z,52.01
2022-08-23T22:21:02.242Z,51.66
2022-08-23T22:23:30.314Z,51.21
2022-08-23T22:26:01.474Z,51.87
2022-08-23T22:28:32.336Z,52.24
2022-08-23T22:31:01.694Z,52.03
2022-08-23T22:33:28.698Z,51.43
2022-08-23T22:36:01.079Z,51.53
2022-08-23T22:38:27.877Z,52.17
2022-08-23T22:40:54.402Z,51.75
2022-08-23T22:43:20.985Z,51.74
2022-08-23T22:45:56.314Z,52.27
2022-08-23T22:48:24.120Z,52.55
2022-08-23T22:50:51.726Z,52.38
2022-08-23T22:53:19.265Z,52.03
2022-08-23T22:55:51.767Z,52.49
2022-08-23T22:58:18.553Z,52.79
2022-08-23T23:00:46.088Z,51.80
2022-08-23T23:03:12.732Z,51.87
2022-08-23T23:05:39.658Z,51.77
2022-08-23T23:08:24.856Z,52.20
2022-08-23T23:10:51.562Z,52.14
2022-08-23T23:13:18.165Z,51.62
2022-08-23T23:15:44.809Z,51.66
2022-08-23T23:18:11.448Z,51.51
2022-08-23T23:20:39.085Z,51.86
2022-08-23T23:23:11.030Z,52.16
2022-08-23T23:25:40.784Z,52.73
2022-08-23T23:28:08.119Z,52.83
2022-08-23T23:30:36.046Z,52.87
2022-08-23T23:33:02.853Z,52.63
2022-08-23T23:35:29.542Z,52.51
2022-08-23T23:37:57.332Z,52.63
2022-08-23T23:40:25.772Z,52.73
2022-08-23T23:42:53.364Z,52.88
2022-08-23T23:45:21.021Z,53.03
2022-08-23T23:47:48.015Z,53.02
2022-08-23T23:50:14.699Z,52.96
2022-08-23T23:52:42.021Z,53.21
2022-08-23T23:55:11.754Z,53.32
2022-08-23T23:57:38.337Z,53.13
